Algonquin, Illinois
Current Conditions -  °F | °C
As of 5:52 PM on Saturday 20 Dec 2014 (Local Time) from KDPA Reporting Station
Overcast Overcast  
Wind Chill: 26°   Ceiling: 6000
Heat Index: 31°   Visibility: 8mi
Dew Point: 26°   Wind: 5mph
Humidity: 82%   Direction: 180°S
Pressure: 30.25"   Gusts: NA
Location:  42.17°N, 88.29°W
Report Text: KDPA 202352Z 18004KT 8SM OVC060 M01/M03 A3025 RMK AO2 SLP252 T10061033 10006 21006 53006
Loading
Personal Weather Stations






























Interactive Weather Map New forecast layout! Learn more

10-Day Weather Forecast

Advertisements
Track Severe Weather on mobile